Terminal Aerodrome Forecast
Issued by NWS

Home | Current Version | Previous Version | Text Only | Print | Product List | Glossary On
Versions: 1 2 3 4 5 6 7 8 9 10 11 12 13 14 15 16 17 18 19 20 21
018
FTUS44 KLIX 252028 AAA
TAFGPT
TAF AMD
KGPT 252028Z 2520/2618 12010KT P6SM VCTS SCT030CB BKN050
     FM252300 14008KT P6SM SCT045 BKN070
     FM260600 13006KT P6SM BKN250
     FM261500 14007KT P6SM SCT030 BKN070
      AMD NOT SKED=

USA.gov is the U.S. government's official web portal to all federal, state and local government web resources and services.